createdAt,value
2019-02-15T00:02:07.932Z,9.95
2019-02-15T00:07:09.332Z,10.40
2019-02-15T00:12:12.608Z,10.13
2019-02-15T00:17:16.332Z,10.13
2019-02-15T00:22:18.035Z,10.25
2019-02-15T00:27:19.698Z,10.60
2019-02-15T00:32:21.987Z,10.18
2019-02-15T00:37:23.380Z,9.90
2019-02-15T00:42:25.588Z,10.08
2019-02-15T00:47:31.565Z,9.55
2019-02-15T00:52:37.441Z,9.43
2019-02-15T00:57:40.812Z,9.53
2019-02-15T01:08:08.593Z,9.85
2019-02-15T01:13:11.583Z,11.10
2019-02-15T01:18:12.855Z,9.90
2019-02-15T01:23:14.339Z,9.93
2019-02-15T01:28:23.676Z,9.53
2019-02-15T01:33:32.539Z,10.13
2019-02-15T01:38:36.176Z,9.50
2019-02-15T01:43:56.103Z,8.50
2019-02-15T01:48:57.416Z,9.40
2019-02-15T01:53:58.894Z,9.33
2019-02-15T01:59:01.751Z,10.23
2019-02-15T02:04:04.214Z,9.03
2019-02-15T02:09:05.950Z,9.25
2019-02-15T02:14:07.275Z,10.05
2019-02-15T02:19:08.747Z,9.53
2019-02-15T02:24:10.220Z,10.00
2019-02-15T02:29:11.895Z,9.98
2019-02-15T02:34:13.778Z,9.23
2019-02-15T02:39:15.181Z,9.48
2019-02-15T02:44:16.807Z,9.83
2019-02-15T02:49:18.552Z,9.23
2019-02-15T02:54:19.873Z,9.33
2019-02-15T02:59:40.002Z,9.75
2019-02-15T03:04:41.444Z,9.78
2019-02-15T03:09:42.866Z,8.70
2019-02-15T03:14:44.185Z,10.05
2019-02-15T03:19:45.528Z,10.38
2019-02-15T03:24:46.828Z,10.58
2019-02-15T03:29:48.131Z,10.30
2019-02-15T03:34:49.544Z,11.22
2019-02-15T03:39:53.118Z,10.00
2019-02-15T03:44:54.540Z,10.75
2019-02-15T03:49:55.847Z,11.03
2019-02-15T03:54:57.188Z,10.63
2019-02-15T03:59:58.925Z,9.58
2019-02-15T04:05:18.760Z,10.60
2019-02-15T04:10:20.175Z,9.85
2019-02-15T04:15:21.488Z,10.35
2019-02-15T04:20:25.442Z,9.95
2019-02-15T04:25:26.917Z,9.28
2019-02-15T04:30:28.674Z,10.40
2019-02-15T04:35:30.153Z,12.45
2019-02-15T04:40:31.449Z,12.30
2019-02-15T04:45:33.108Z,11.80
2019-02-15T04:50:34.410Z,10.95
2019-02-15T04:55:35.819Z,10.93
2019-02-15T05:00:37.415Z,10.40
2019-02-15T05:05:38.841Z,10.65
2019-02-15T05:10:41.995Z,9.93
2019-02-15T05:15:43.530Z,10.58
2019-02-15T05:20:44.858Z,9.60
2019-02-15T05:25:46.163Z,10.28
2019-02-15T05:30:47.473Z,10.88
2019-02-15T05:35:48.779Z,9.43
2019-02-15T05:40:50.122Z,10.30
2019-02-15T05:45:51.430Z,9.35
2019-02-15T05:50:53.287Z,10.38
2019-02-15T05:55:54.771Z,10.43
2019-02-15T06:00:56.417Z,10.13
2019-02-15T06:05:57.831Z,10.63
2019-02-15T06:11:07.582Z,10.20
2019-02-15T06:16:02.821Z,10.23
2019-02-15T06:21:04.484Z,10.48
2019-02-15T06:26:05.836Z,10.38
2019-02-15T06:31:07.191Z,9.78
2019-02-15T06:36:08.622Z,9.13
2019-02-15T06:41:12.460Z,9.18
2019-02-15T06:46:14.388Z,8.20
2019-02-15T06:51:15.767Z,8.28
2019-02-15T06:56:17.435Z,8.58
2019-02-15T07:01:20.782Z,8.90
2019-02-15T07:06:22.523Z,8.53
2019-02-15T07:11:23.848Z,8.45
2019-02-15T07:16:25.258Z,8.60
2019-02-15T07:21:26.591Z,8.65
2019-02-15T07:26:28.117Z,7.67
2019-02-15T07:31:30.581Z,8.70
2019-02-15T07:36:32.625Z,8.90
2019-02-15T07:41:34.830Z,8.20
2019-02-15T07:46:37.132Z,8.65
2019-02-15T07:51:38.703Z,8.68
2019-02-15T07:56:40.182Z,9.13
2019-02-15T08:01:41.511Z,8.75
2019-02-15T08:06:43.009Z,8.75
2019-02-15T08:11:44.338Z,8.15
2019-02-15T08:16:45.910Z,7.72
2019-02-15T08:21:47.267Z,7.03
2019-02-15T08:26:48.589Z,6.42
2019-02-15T08:31:50.001Z,7.08
2019-02-15T08:36:51.307Z,6.92
2019-02-15T08:42:01.185Z,7.17
2019-02-15T08:46:58.619Z,7.03
2019-02-15T08:52:00.068Z,7.15
2019-02-15T08:57:01.467Z,6.80
2019-02-15T09:02:06.011Z,6.87
2019-02-15T09:07:07.415Z,6.55
2019-02-15T09:12:10.373Z,6.10
2019-02-15T09:17:11.947Z,5.92
2019-02-15T09:22:13.453Z,5.95
2019-02-15T09:27:19.724Z,5.35
2019-02-15T09:32:21.130Z,5.78
2019-02-15T09:37:22.715Z,5.95
2019-02-15T09:42:24.351Z,5.58
2019-02-15T09:47:25.737Z,6.15
2019-02-15T09:52:27.122Z,5.35
2019-02-15T09:57:29.999Z,5.20
2019-02-15T10:02:31.741Z,4.97
2019-02-15T10:07:33.339Z,4.47
2019-02-15T10:12:34.936Z,4.50
2019-02-15T10:17:56.527Z,4.50
2019-02-15T10:22:58.477Z,4.70
2019-02-15T10:27:59.799Z,4.83
2019-02-15T10:33:01.238Z,5.28
2019-02-15T10:38:02.567Z,4.90
2019-02-15T10:43:04.323Z,5.12
2019-02-15T10:48:06.269Z,4.67
2019-02-15T10:53:07.730Z,4.35
2019-02-15T10:58:09.400Z,4.72
2019-02-15T11:03:12.011Z,4.35
2019-02-15T11:08:13.459Z,4.10
2019-02-15T11:13:15.009Z,4.33
2019-02-15T11:18:16.459Z,4.92
2019-02-15T11:23:17.874Z,4.33
2019-02-15T11:28:19.306Z,4.25
2019-02-15T11:33:20.631Z,4.05
2019-02-15T11:38:21.954Z,4.33
2019-02-15T11:43:23.311Z,4.60
2019-02-15T11:48:24.644Z,4.72
2019-02-15T11:53:26.256Z,4.20
2019-02-15T11:58:27.795Z,4.37
2019-02-15T12:03:29.595Z,5.45
2019-02-15T12:08:31.300Z,4.72
2019-02-15T12:13:32.816Z,4.45
2019-02-15T12:18:34.720Z,4.50
2019-02-15T12:23:37.473Z,4.47
2019-02-15T12:28:39.190Z,4.58
2019-02-15T12:33:40.732Z,3.90
2019-02-15T12:38:42.222Z,4.50
2019-02-15T12:43:43.843Z,4.37
2019-02-15T12:48:45.387Z,4.80
2019-02-15T12:53:46.669Z,5.00
2019-02-15T12:58:48.043Z,5.33
2019-02-15T13:03:49.700Z,4.42
2019-02-15T13:08:51.124Z,4.90
2019-02-15T13:13:52.526Z,4.30
2019-02-15T13:18:53.817Z,4.33
2019-02-15T13:23:56.574Z,3.60
2019-02-15T13:28:58.033Z,3.95
2019-02-15T13:33:59.717Z,3.80
2019-02-15T13:39:01.773Z,3.15
2019-02-15T13:44:03.267Z,3.90
2019-02-15T13:49:05.238Z,3.22
2019-02-15T13:54:06.605Z,3.05
2019-02-15T13:59:08.098Z,3.50
2019-02-15T14:04:09.431Z,3.35
2019-02-15T14:09:11.269Z,3.17
2019-02-15T14:14:31.212Z,4.10
2019-02-15T14:19:32.692Z,3.35
2019-02-15T14:24:54.023Z,4.08
2019-02-15T14:29:57.100Z,4.03
2019-02-15T14:34:58.516Z,3.72
2019-02-15T14:40:00.062Z,3.33
2019-02-15T14:45:01.505Z,3.62
2019-02-15T14:50:05.845Z,3.12
2019-02-15T14:55:09.222Z,3.33
2019-02-15T15:00:15.386Z,2.65
2019-02-15T15:05:16.863Z,2.72
2019-02-15T15:10:18.609Z,2.80
2019-02-15T15:15:20.132Z,2.30
2019-02-15T15:20:21.599Z,2.70
2019-02-15T15:25:23.322Z,2.75
2019-02-15T15:30:25.963Z,3.00
2019-02-15T15:35:27.759Z,2.60
2019-02-15T15:40:30.062Z,3.58
2019-02-15T15:45:31.416Z,2.62
2019-02-15T15:50:32.807Z,2.10
2019-02-15T15:55:34.140Z,2.92
2019-02-15T16:00:39.086Z,2.72
2019-02-15T16:05:40.307Z,2.72
2019-02-15T16:10:41.695Z,2.27
2019-02-15T16:15:43.080Z,3.00
2019-02-15T16:20:44.648Z,3.25
2019-02-15T16:25:45.983Z,3.55
2019-02-15T16:30:47.333Z,5.50
2019-02-15T16:35:48.639Z,5.35
2019-02-15T16:40:51.354Z,7.50
2019-02-15T16:45:54.513Z,8.58
2019-02-15T16:50:55.936Z,8.18
2019-02-15T16:55:57.650Z,8.08
2019-02-15T17:00:59.075Z,9.70
2019-02-15T17:06:00.473Z,9.40
2019-02-15T17:11:01.761Z,10.08
2019-02-15T17:16:03.413Z,8.88
2019-02-15T17:21:04.781Z,8.58
2019-02-15T17:26:07.998Z,9.88
2019-02-15T17:31:09.318Z,11.90
2019-02-15T17:36:10.904Z,11.15
2019-02-15T17:41:12.800Z,11.08
2019-02-15T17:46:14.846Z,11.40
2019-02-15T17:51:16.335Z,10.85
2019-02-15T18:01:40.172Z,10.60
2019-02-15T18:06:41.787Z,9.45
2019-02-15T18:11:43.184Z,10.23
2019-02-15T18:16:44.617Z,10.40
2019-02-15T18:22:04.435Z,9.75
2019-02-15T18:27:05.792Z,10.43
2019-02-15T18:32:07.208Z,15.83
2019-02-15T18:37:08.733Z,18.25
2019-02-15T18:42:10.113Z,20.60
2019-02-15T18:47:11.653Z,19.92
2019-02-15T18:52:14.259Z,18.98
2019-02-15T18:57:15.898Z,16.15
2019-02-15T19:02:17.225Z,14.23
2019-02-15T19:07:18.960Z,12.47
2019-02-15T19:12:20.472Z,14.25
2019-02-15T19:17:23.684Z,12.85
2019-02-15T19:22:25.107Z,13.30
2019-02-15T19:27:26.441Z,13.78
2019-02-15T19:32:28.115Z,14.07
2019-02-15T19:37:29.899Z,14.68
2019-02-15T19:42:31.457Z,14.43
2019-02-15T19:47:32.772Z,15.50
2019-02-15T19:52:34.304Z,15.88
2019-02-15T19:57:36.298Z,16.75
2019-02-15T20:02:39.425Z,15.08
2019-02-15T20:07:41.097Z,14.70
2019-02-15T20:12:42.571Z,14.78
2019-02-15T20:17:44.116Z,15.90
2019-02-15T20:22:45.776Z,14.30
2019-02-15T20:27:47.299Z,15.15
2019-02-15T20:32:48.915Z,14.40
2019-02-15T20:37:50.281Z,14.55
2019-02-15T20:42:51.824Z,14.50
2019-02-15T20:47:53.697Z,13.83
2019-02-15T20:52:55.526Z,13.70
2019-02-15T20:57:56.972Z,13.90
2019-02-15T21:03:00.170Z,14.55
2019-02-15T21:08:01.695Z,14.05
2019-02-15T21:13:03.420Z,13.48
2019-02-15T21:18:04.950Z,13.22
2019-02-15T21:23:06.429Z,14.03
2019-02-15T21:28:07.862Z,15.28
2019-02-15T21:33:09.275Z,16.25
2019-02-15T21:38:10.772Z,16.75
2019-02-15T21:43:12.369Z,17.65
2019-02-15T21:48:13.834Z,17.05
2019-02-15T21:53:15.511Z,18.55
2019-02-15T21:58:17.016Z,57.78
2019-02-15T22:03:18.553Z,38.17
2019-02-15T22:08:20.057Z,54.70
2019-02-15T22:13:21.519Z,63.35
2019-02-15T22:18:22.865Z,47.48
2019-02-15T22:23:24.368Z,35.10
2019-02-15T22:28:25.786Z,49.42
2019-02-15T22:33:27.149Z,65.10
2019-02-15T22:38:28.960Z,54.70
2019-02-15T22:43:30.941Z,45.60
2019-02-15T22:48:32.719Z,31.68
2019-02-15T22:53:34.343Z,25.92
2019-02-15T22:58:35.671Z,16.95
2019-02-15T23:03:37.096Z,15.70
2019-02-15T23:08:40.331Z,14.98
2019-02-15T23:13:41.663Z,14.80
2019-02-15T23:18:43.228Z,15.28
2019-02-15T23:23:44.693Z,13.30
2019-02-15T23:28:46.570Z,13.60
2019-02-15T23:33:48.015Z,12.68
2019-02-15T23:38:49.339Z,14.05
2019-02-15T23:43:51.240Z,13.05
2019-02-15T23:48:52.652Z,14.55
2019-02-15T23:53:54.177Z,13.20
2019-02-15T23:58:55.662Z,12.93
